createdAt,value
2022-09-05T00:00:53.745Z,0.90
2022-09-05T00:01:53.727Z,0.60
2022-09-05T00:02:53.890Z,0.50
2022-09-05T00:03:53.816Z,0.50
2022-09-05T00:04:53.695Z,0.60
2022-09-05T00:06:02.477Z,0.80
2022-09-05T00:06:53.681Z,0.60
2022-09-05T00:07:59.006Z,0.60
2022-09-05T00:08:53.671Z,0.60
2022-09-05T00:09:53.636Z,0.70
2022-09-05T00:11:39.850Z,1.00
2022-09-05T00:11:53.628Z,0.50
2022-09-05T00:13:07.664Z,0.60
2022-09-05T00:13:53.605Z,1.10
2022-09-05T00:15:16.273Z,0.80
2022-09-05T00:15:53.624Z,0.70
2022-09-05T00:16:53.588Z,0.50
2022-09-05T00:20:21.945Z,0.60
2022-09-05T00:24:54.678Z,0.70
2022-09-05T00:25:30.604Z,1.00
2022-09-05T00:25:38.539Z,0.80
2022-09-05T00:26:38.234Z,0.70
2022-09-05T00:27:38.254Z,0.60
2022-09-05T00:28:38.200Z,0.80
2022-09-05T00:31:05.654Z,0.60
2022-09-05T00:31:57.410Z,0.60
2022-09-05T00:32:02.620Z,1.00
2022-09-05T00:33:02.514Z,1.00
2022-09-05T00:34:02.624Z,0.70
2022-09-05T00:35:02.500Z,0.60
2022-09-05T00:36:02.523Z,0.60
2022-09-05T00:37:02.526Z,0.80
2022-09-05T00:38:02.478Z,0.60
2022-09-05T00:39:02.470Z,1.10
2022-09-05T00:40:18.369Z,0.80
2022-09-05T00:41:02.442Z,0.70
2022-09-05T00:42:02.420Z,0.40
2022-09-05T00:43:02.441Z,0.50
2022-09-05T00:44:02.421Z,1.20
2022-09-05T00:45:02.421Z,0.60
2022-09-05T00:46:02.445Z,0.70
2022-09-05T00:47:02.378Z,0.50
2022-09-05T00:48:02.429Z,0.60
2022-09-05T00:49:02.405Z,0.50
2022-09-05T00:50:02.374Z,0.60
2022-09-05T00:51:02.336Z,0.40
2022-09-05T00:52:02.320Z,0.60
2022-09-05T00:53:07.051Z,0.70
2022-09-05T00:54:02.329Z,0.80
2022-09-05T00:55:02.318Z,0.70
2022-09-05T00:56:02.279Z,0.60
2022-09-05T00:57:02.279Z,1.30
2022-09-05T00:58:02.262Z,0.70
2022-09-05T00:59:02.263Z,0.80
2022-09-05T01:00:02.229Z,1.40
2022-09-05T01:01:02.273Z,0.60
2022-09-05T01:02:02.360Z,0.80
2022-09-05T01:03:02.386Z,1.00
2022-09-05T01:04:05.724Z,0.60
2022-09-05T01:05:02.192Z,0.70
2022-09-05T01:06:02.177Z,1.00
2022-09-05T01:07:02.264Z,0.80
2022-09-05T01:08:02.167Z,0.60
2022-09-05T01:09:07.882Z,0.90
2022-09-05T01:10:02.133Z,0.50
2022-09-05T01:11:02.126Z,0.60
2022-09-05T01:12:02.115Z,0.90
2022-09-05T01:13:02.114Z,0.50
2022-09-05T01:14:02.127Z,1.10
2022-09-05T01:15:02.105Z,0.70
2022-09-05T01:16:02.255Z,0.80
2022-09-05T01:17:02.087Z,0.90
2022-09-05T01:18:02.069Z,0.70
2022-09-05T01:19:02.073Z,0.80
2022-09-05T01:20:04.694Z,0.60
2022-09-05T01:21:02.073Z,0.50
2022-09-05T01:22:02.016Z,0.70
2022-09-05T01:23:08.208Z,1.10
2022-09-05T01:24:02.026Z,0.80
2022-09-05T01:25:02.107Z,0.60
2022-09-05T01:26:01.978Z,0.50
2022-09-05T01:27:02.044Z,0.60
2022-09-05T01:29:13.106Z,0.60
2022-09-05T01:29:22.100Z,0.40
2022-09-05T01:30:02.046Z,0.70
2022-09-05T01:31:01.997Z,0.60
2022-09-05T01:32:02.021Z,0.80
2022-09-05T01:33:05.741Z,1.10
2022-09-05T01:34:02.069Z,1.00
2022-09-05T01:35:01.918Z,0.70
2022-09-05T01:36:03.757Z,0.70
2022-09-05T01:37:01.878Z,0.60
2022-09-05T01:38:01.859Z,0.50
2022-09-05T01:40:10.526Z,0.70
2022-09-05T01:40:18.738Z,0.80
2022-09-05T01:41:18.450Z,0.60
2022-09-05T01:42:01.820Z,0.50
2022-09-05T01:43:01.790Z,0.50
2022-09-05T01:44:01.786Z,0.70
2022-09-05T01:45:01.784Z,0.80
2022-09-05T01:46:01.973Z,0.80
2022-09-05T01:47:01.767Z,0.70
2022-09-05T01:48:01.732Z,0.90
2022-09-05T01:49:01.735Z,0.80
2022-09-05T01:50:01.786Z,0.70
2022-09-05T01:51:01.739Z,1.10
2022-09-05T01:52:01.711Z,0.50
2022-09-05T01:53:04.933Z,0.60
2022-09-05T01:54:01.669Z,0.80
2022-09-05T01:55:01.668Z,0.80
2022-09-05T01:56:06.404Z,0.60
2022-09-05T01:57:01.712Z,0.70
2022-09-05T01:58:01.675Z,0.80
2022-09-05T01:59:01.634Z,0.70
2022-09-05T02:00:01.598Z,0.80
2022-09-05T02:01:30.053Z,0.70
2022-09-05T02:02:01.761Z,1.10
2022-09-05T02:03:01.637Z,0.70
2022-09-05T02:04:06.484Z,0.80
2022-09-05T02:05:01.593Z,0.70
2022-09-05T02:06:01.586Z,1.10
2022-09-05T02:07:19.279Z,0.80
2022-09-05T02:08:01.530Z,0.90
2022-09-05T02:09:01.566Z,0.60
2022-09-05T02:10:07.244Z,1.10
2022-09-05T02:11:01.548Z,0.60
2022-09-05T02:12:01.502Z,0.60
2022-09-05T02:13:02.830Z,0.90
2022-09-05T02:14:01.506Z,0.80
2022-09-05T02:15:01.533Z,0.90
2022-09-05T02:16:01.607Z,0.70
2022-09-05T02:17:01.467Z,0.90
2022-09-05T02:18:01.430Z,0.90
2022-09-05T02:19:01.535Z,0.50
2022-09-05T02:20:01.409Z,0.80
2022-09-05T02:21:01.437Z,0.70
2022-09-05T02:22:01.427Z,0.80
2022-09-05T02:23:01.373Z,0.80
2022-09-05T02:24:01.395Z,0.80
2022-09-05T02:26:00.296Z,0.80
2022-09-05T02:26:07.566Z,1.00
2022-09-05T02:27:01.358Z,0.90
2022-09-05T02:28:05.871Z,1.00
2022-09-05T02:29:01.353Z,0.70
2022-09-05T02:30:01.287Z,0.70
2022-09-05T02:31:19.743Z,0.90
2022-09-05T02:32:01.269Z,0.90
2022-09-05T02:33:01.315Z,0.90
2022-09-05T02:34:02.439Z,0.60
2022-09-05T02:35:01.259Z,0.60
2022-09-05T02:36:01.259Z,0.70
2022-09-05T02:37:01.250Z,1.10
2022-09-05T02:38:31.736Z,1.10
2022-09-05T02:45:25.466Z,0.90
2022-09-05T02:45:31.537Z,0.90
2022-09-05T02:46:19.109Z,1.00
2022-09-05T02:47:19.021Z,0.90
2022-09-05T02:48:19.009Z,0.80
2022-09-05T02:49:44.524Z,1.00
2022-09-05T02:57:26.637Z,0.80
2022-09-05T02:58:07.696Z,0.70
2022-09-05T02:58:13.518Z,1.20
2022-09-05T02:59:10.541Z,1.60
2022-09-05T03:00:02.179Z,1.20
2022-09-05T03:01:02.176Z,1.30
2022-09-05T03:02:02.124Z,1.00
2022-09-05T03:03:02.185Z,1.40
2022-09-05T03:04:02.212Z,0.70
2022-09-05T03:05:04.502Z,1.10
2022-09-05T03:06:02.090Z,1.20
2022-09-05T03:07:02.071Z,1.00
2022-09-05T03:08:02.060Z,1.10
2022-09-05T03:09:09.767Z,1.50
2022-09-05T03:10:02.042Z,1.00
2022-09-05T03:11:02.012Z,0.80
2022-09-05T03:12:11.152Z,0.80
2022-09-05T03:13:02.049Z,0.80
2022-09-05T03:14:02.035Z,1.10
2022-09-05T03:15:01.979Z,0.80
2022-09-05T03:16:04.637Z,0.80
2022-09-05T03:17:02.045Z,1.10
2022-09-05T03:18:19.998Z,1.10
2022-09-05T03:19:01.961Z,1.20
2022-09-05T03:20:01.953Z,0.80
2022-09-05T03:21:09.764Z,0.90
2022-09-05T03:22:01.934Z,0.90
2022-09-05T03:23:01.883Z,1.10
2022-09-05T03:24:01.922Z,1.10
2022-09-05T03:25:01.879Z,1.00
2022-09-05T03:26:01.858Z,1.10
2022-09-05T03:27:01.862Z,1.10
2022-09-05T03:28:01.865Z,0.90
2022-09-05T03:29:01.830Z,0.80
2022-09-05T03:30:01.898Z,1.30
2022-09-05T03:31:01.875Z,1.20
2022-09-05T03:32:01.881Z,1.40
2022-09-05T03:33:01.784Z,1.20
2022-09-05T03:34:01.799Z,1.10
2022-09-05T03:35:06.371Z,0.90
2022-09-05T03:36:01.773Z,1.10
2022-09-05T03:37:01.752Z,1.10
2022-09-05T03:38:01.733Z,1.30
2022-09-05T03:39:01.725Z,1.10
2022-09-05T03:40:15.955Z,1.40
2022-09-05T03:41:01.775Z,1.20
2022-09-05T03:42:01.691Z,1.30
2022-09-05T03:43:01.675Z,0.80
2022-09-05T03:44:01.706Z,1.00
2022-09-05T03:45:01.648Z,1.10
2022-09-05T03:46:01.704Z,1.10
2022-09-05T03:47:01.629Z,1.30
2022-09-05T03:48:16.501Z,0.90
2022-09-05T03:49:27.248Z,1.10
2022-09-05T03:57:10.710Z,1.10
2022-09-05T03:57:41.445Z,1.30
2022-09-05T03:57:46.986Z,1.00
2022-09-05T03:58:56.063Z,1.40
2022-09-05T03:59:37.909Z,1.00
2022-09-05T04:00:36.565Z,1.20
2022-09-05T04:04:03.733Z,1.30
2022-09-05T04:08:34.251Z,0.90
2022-09-05T04:08:47.249Z,1.20
2022-09-05T04:09:49.652Z,1.50
2022-09-05T04:10:27.204Z,1.30
2022-09-05T04:11:27.058Z,1.60
2022-09-05T04:12:27.017Z,1.00
2022-09-05T04:13:27.024Z,1.60
2022-09-05T04:14:27.150Z,1.40
2022-09-05T04:15:27.014Z,1.40
2022-09-05T04:16:27.099Z,1.30
2022-09-05T04:17:26.975Z,1.10
2022-09-05T04:18:32.935Z,1.50
2022-09-05T04:19:26.902Z,1.30
2022-09-05T04:20:27.001Z,1.20
2022-09-05T04:21:26.905Z,1.60
2022-09-05T04:22:27.015Z,1.40
2022-09-05T04:23:26.909Z,1.20
2022-09-05T04:24:26.904Z,1.30
2022-09-05T04:25:26.839Z,1.40
2022-09-05T04:26:26.846Z,1.20
2022-09-05T04:27:28.033Z,1.10
2022-09-05T04:28:27.814Z,0.80
2022-09-05T04:29:26.826Z,1.30
2022-09-05T04:30:39.783Z,1.40
2022-09-05T04:31:26.865Z,1.80
2022-09-05T04:32:26.829Z,1.40
2022-09-05T04:33:36.392Z,1.60
2022-09-05T04:34:26.740Z,1.20
2022-09-05T04:35:26.883Z,1.40
2022-09-05T04:36:26.707Z,1.10
2022-09-05T04:37:26.726Z,1.10
2022-09-05T04:38:26.729Z,1.30
2022-09-05T04:39:26.761Z,1.30
2022-09-05T04:40:29.786Z,1.40
2022-09-05T04:41:39.112Z,1.20
2022-09-05T04:42:26.694Z,1.60
2022-09-05T04:43:26.643Z,1.10
2022-09-05T04:44:26.657Z,1.90
2022-09-05T04:45:26.602Z,1.00
2022-09-05T04:46:26.679Z,1.50
2022-09-05T04:47:26.588Z,1.20
2022-09-05T04:48:26.646Z,1.20
2022-09-05T04:49:26.594Z,1.50
2022-09-05T04:50:26.577Z,1.90
2022-09-05T04:51:26.569Z,1.70
2022-09-05T04:52:30.938Z,1.20
2022-09-05T04:53:26.512Z,1.50
2022-09-05T04:54:27.639Z,1.80
2022-09-05T04:55:26.494Z,1.90
2022-09-05T04:56:26.543Z,1.20
2022-09-05T04:57:26.527Z,1.10
2022-09-05T04:58:36.434Z,2.00
2022-09-05T05:05:46.363Z,1.40
2022-09-05T05:06:45.936Z,1.60
2022-09-05T05:06:51.383Z,1.20
2022-09-05T05:07:35.165Z,1.70
2022-09-05T05:08:39.102Z,1.80
2022-09-05T05:09:35.089Z,1.80
2022-09-05T05:12:39.169Z,2.00
2022-09-05T05:18:36.518Z,1.90
2022-09-05T05:18:56.487Z,1.30
2022-09-05T05:19:22.018Z,1.70
2022-09-05T05:20:41.802Z,1.20
2022-09-05T05:21:20.191Z,1.10
2022-09-05T05:22:20.166Z,1.50
2022-09-05T05:23:20.192Z,1.70
2022-09-05T05:24:21.761Z,2.50
2022-09-05T05:25:20.131Z,1.70
2022-09-05T05:26:20.143Z,1.50
2022-09-05T05:27:20.127Z,1.60
2022-09-05T05:28:24.163Z,2.00
2022-09-05T05:29:20.138Z,1.40
2022-09-05T05:30:20.164Z,1.10
2022-09-05T05:31:20.111Z,1.70
2022-09-05T05:32:37.506Z,1.40
2022-09-05T05:33:20.087Z,1.50
2022-09-05T05:34:24.781Z,1.30
2022-09-05T05:35:20.053Z,1.40
2022-09-05T05:36:20.016Z,1.00
2022-09-05T05:37:20.058Z,1.50
2022-09-05T05:38:20.422Z,1.50
2022-09-05T05:39:19.970Z,1.90
2022-09-05T05:40:20.023Z,1.60
2022-09-05T05:41:19.980Z,1.70
2022-09-05T05:42:21.161Z,1.80
2022-09-05T05:43:20.143Z,1.70
2022-09-05T05:44:19.951Z,1.40
2022-09-05T05:45:19.997Z,1.30
2022-09-05T05:46:20.040Z,1.10
2022-09-05T05:47:28.335Z,1.40
2022-09-05T05:48:19.954Z,1.60
2022-09-05T05:49:19.951Z,1.40
2022-09-05T05:50:19.870Z,1.20
2022-09-05T05:51:19.906Z,1.40
2022-09-05T05:52:19.851Z,1.10
2022-09-05T05:53:40.981Z,0.90
2022-09-05T05:54:19.895Z,1.40
2022-09-05T05:55:36.270Z,1.50
2022-09-05T05:56:19.805Z,1.40
2022-09-05T05:57:19.836Z,1.40
2022-09-05T05:58:19.790Z,1.40
2022-09-05T05:59:24.485Z,1.50
2022-09-05T06:00:27.469Z,1.80
2022-09-05T06:01:31.641Z,1.20
2022-09-05T06:02:19.888Z,1.60
2022-09-05T06:03:26.430Z,1.10
2022-09-05T06:04:19.760Z,1.50
2022-09-05T06:05:19.842Z,1.20
2022-09-05T06:06:19.768Z,1.70
2022-09-05T06:07:19.690Z,1.50
2022-09-05T06:10:06.494Z,1.40
2022-09-05T06:15:10.774Z,2.10
2022-09-05T06:15:22.061Z,1.50
2022-09-05T06:16:08.548Z,1.30
2022-09-05T06:17:08.638Z,1.60
2022-09-05T06:18:08.528Z,1.70
2022-09-05T06:19:08.481Z,1.50
2022-09-05T06:22:04.040Z,2.30
2022-09-05T06:22:14.975Z,1.90
2022-09-05T06:22:22.570Z,1.40
2022-09-05T06:23:37.362Z,1.00
2022-09-05T06:24:22.566Z,1.60
2022-09-05T06:25:22.461Z,1.10
2022-09-05T06:26:22.439Z,1.30
2022-09-05T06:27:22.451Z,2.00
2022-09-05T06:28:22.444Z,2.30
2022-09-05T06:29:22.439Z,2.20
2022-09-05T06:30:22.414Z,1.40
2022-09-05T06:31:30.550Z,1.60
2022-09-05T06:32:22.376Z,1.50
2022-09-05T06:33:22.436Z,1.40
2022-09-05T06:34:33.118Z,1.30
2022-09-05T06:35:22.388Z,2.70
2022-09-05T06:36:22.359Z,1.10
2022-09-05T06:37:22.411Z,1.10
2022-09-05T06:38:22.317Z,1.00
2022-09-05T06:39:22.340Z,1.90
2022-09-05T06:40:22.328Z,1.20
2022-09-05T06:41:22.306Z,1.90
2022-09-05T06:42:28.645Z,1.60
2022-09-05T06:43:22.275Z,1.30
2022-09-05T06:44:22.254Z,2.20
2022-09-05T06:45:26.904Z,1.60
2022-09-05T06:46:41.572Z,1.40
2022-09-05T06:47:23.950Z,1.30
2022-09-05T06:48:45.950Z,1.00
2022-09-05T06:49:37.326Z,1.10
2022-09-05T06:50:26.696Z,1.50
2022-09-05T06:51:22.203Z,1.40
2022-09-05T06:52:29.698Z,1.30
2022-09-05T06:53:22.169Z,1.80
2022-09-05T06:54:22.162Z,1.20
2022-09-05T06:55:22.137Z,1.70
2022-09-05T06:56:25.504Z,1.40
2022-09-05T06:57:22.157Z,1.10
2022-09-05T06:58:22.089Z,0.90
2022-09-05T06:59:22.098Z,1.30
2022-09-05T07:00:22.889Z,0.90
2022-09-05T07:01:22.227Z,1.00
2022-09-05T07:02:33.040Z,1.70
2022-09-05T07:03:22.774Z,1.20
2022-09-05T07:05:05.260Z,1.10
2022-09-05T07:05:45.546Z,1.40
2022-09-05T07:06:22.003Z,1.30
2022-09-05T07:07:22.024Z,1.00
2022-09-05T07:08:35.375Z,1.50
2022-09-05T07:09:22.174Z,1.30
2022-09-05T07:10:37.793Z,1.00
2022-09-05T07:11:22.002Z,1.50
2022-09-05T07:12:21.995Z,1.50
2022-09-05T07:13:21.949Z,1.90
2022-09-05T07:14:21.922Z,0.90
2022-09-05T07:15:22.243Z,1.10
2022-09-05T07:16:37.231Z,1.10
2022-09-05T07:17:21.909Z,1.20
2022-09-05T07:18:21.955Z,1.20
2022-09-05T07:19:21.901Z,0.90
2022-09-05T07:20:22.196Z,1.30
2022-09-05T07:21:26.070Z,1.50
2022-09-05T07:22:46.700Z,1.50
2022-09-05T07:24:06.423Z,1.10
2022-09-05T07:24:40.435Z,1.50
2022-09-05T07:25:21.819Z,1.40
2022-09-05T07:26:39.570Z,1.20
2022-09-05T07:27:25.489Z,0.90
2022-09-05T07:28:28.583Z,1.50
2022-09-05T07:29:21.785Z,1.20
2022-09-05T07:30:21.803Z,1.20
2022-09-05T07:31:37.251Z,0.80
2022-09-05T07:32:24.519Z,0.90
2022-09-05T07:33:21.946Z,0.80
2022-09-05T07:34:21.852Z,1.40
2022-09-05T07:35:21.756Z,0.90
2022-09-05T07:36:21.707Z,1.50
2022-09-05T07:37:21.687Z,1.20
2022-09-05T07:38:21.749Z,1.10
2022-09-05T07:39:28.691Z,1.20
2022-09-05T07:40:25.953Z,1.10
2022-09-05T07:41:21.647Z,1.30
2022-09-05T07:42:21.632Z,1.10
2022-09-05T07:43:21.716Z,0.80
2022-09-05T07:44:22.255Z,1.40
2022-09-05T07:45:21.760Z,1.20
2022-09-05T07:46:21.638Z,1.10
2022-09-05T07:47:21.577Z,1.10
2022-09-05T07:48:22.289Z,0.90
2022-09-05T07:49:21.567Z,1.30
2022-09-05T07:53:46.412Z,1.40
2022-09-05T07:57:32.663Z,0.90
2022-09-05T07:57:52.771Z,1.00
2022-09-05T07:58:25.917Z,0.70
2022-09-05T07:59:25.849Z,1.00
2022-09-05T08:00:29.477Z,0.90
2022-09-05T08:01:25.844Z,0.80
2022-09-05T08:02:25.802Z,0.80
2022-09-05T08:03:26.097Z,0.90
2022-09-05T08:04:25.778Z,1.40
2022-09-05T08:05:34.590Z,0.60
2022-09-05T08:06:34.359Z,0.90
2022-09-05T08:07:48.785Z,0.70
2022-09-05T08:08:25.769Z,0.60
2022-09-05T08:10:08.810Z,0.70
2022-09-05T08:10:35.646Z,0.90
2022-09-05T08:11:27.957Z,0.50
2022-09-05T08:12:28.085Z,1.10
2022-09-05T08:13:27.497Z,0.60
2022-09-05T08:14:44.828Z,0.70
2022-09-05T08:15:25.650Z,1.00
2022-09-05T08:16:25.700Z,0.70
2022-09-05T08:17:26.297Z,1.10
2022-09-05T08:18:25.636Z,0.80
2022-09-05T08:19:25.626Z,0.40
2022-09-05T08:20:25.621Z,0.80
2022-09-05T08:21:27.340Z,0.80
2022-09-05T08:22:25.601Z,0.60
2022-09-05T08:23:25.803Z,0.80
2022-09-05T08:24:25.598Z,1.10
2022-09-05T08:25:27.555Z,1.00
2022-09-05T08:26:25.555Z,1.20
2022-09-05T08:27:25.530Z,0.80
2022-09-05T08:28:25.743Z,1.00
2022-09-05T08:29:25.619Z,0.80
2022-09-05T08:30:27.980Z,0.70
2022-09-05T08:31:25.521Z,0.90
2022-09-05T08:32:25.478Z,0.70
2022-09-05T08:33:25.473Z,0.40
2022-09-05T08:34:31.358Z,0.70
2022-09-05T08:35:25.446Z,0.50
2022-09-05T08:36:25.445Z,0.80
2022-09-05T08:37:25.422Z,0.80
2022-09-05T08:38:25.509Z,0.70
2022-09-05T08:39:25.489Z,0.50
2022-09-05T08:40:25.505Z,0.60
2022-09-05T08:41:30.024Z,0.40
2022-09-05T08:42:25.614Z,0.70
2022-09-05T08:46:04.565Z,0.70
2022-09-05T08:46:53.438Z,0.80
2022-09-05T08:46:59.196Z,0.60
2022-09-05T08:47:58.772Z,0.50
2022-09-05T08:49:02.132Z,0.80
2022-09-05T08:49:58.690Z,0.60
2022-09-05T08:50:58.667Z,0.60
2022-09-05T08:51:58.691Z,0.90
2022-09-05T08:52:58.633Z,0.50
2022-09-05T08:53:58.619Z,0.50
2022-09-05T08:55:05.693Z,1.30
2022-09-05T08:55:58.615Z,0.70
2022-09-05T08:56:58.580Z,0.60
2022-09-05T08:57:58.585Z,0.60
2022-09-05T08:59:28.448Z,0.50
2022-09-05T09:00:18.652Z,0.80
2022-09-05T09:01:03.068Z,0.60
2022-09-05T09:02:45.056Z,0.40
2022-09-05T09:03:04.273Z,0.60
2022-09-05T09:03:58.551Z,0.60
2022-09-05T09:05:01.458Z,0.60
2022-09-05T09:06:14.022Z,0.70
2022-09-05T09:07:19.889Z,0.60
2022-09-05T09:07:58.517Z,0.30
2022-09-05T09:09:01.104Z,0.40
2022-09-05T09:09:58.568Z,0.40
2022-09-05T09:10:58.789Z,0.40
2022-09-05T09:11:58.434Z,0.40
2022-09-05T09:12:58.436Z,0.70
2022-09-05T09:13:58.598Z,0.70
2022-09-05T09:14:58.389Z,0.60
2022-09-05T09:15:58.429Z,0.50
2022-09-05T09:16:58.354Z,0.60
2022-09-05T09:17:58.605Z,0.50
2022-09-05T09:18:58.369Z,0.60
2022-09-05T09:19:58.334Z,0.40
2022-09-05T09:20:58.320Z,0.20
2022-09-05T09:21:58.334Z,0.40
2022-09-05T09:22:58.296Z,0.50
2022-09-05T09:23:59.285Z,0.40
2022-09-05T09:25:14.772Z,0.70
2022-09-05T09:25:58.289Z,0.60
2022-09-05T09:26:58.265Z,0.60
2022-09-05T09:28:49.464Z,0.50
2022-09-05T09:28:58.229Z,0.40
2022-09-05T09:29:58.222Z,0.50
2022-09-05T09:30:58.373Z,0.40
2022-09-05T09:31:58.205Z,0.40
2022-09-05T09:32:59.515Z,0.80
2022-09-05T09:33:58.193Z,0.40
2022-09-05T09:34:58.191Z,0.40
2022-09-05T09:35:58.190Z,0.50
2022-09-05T09:36:58.157Z,0.30
2022-09-05T09:37:59.600Z,0.40
2022-09-05T09:38:58.137Z,0.60
2022-09-05T09:39:58.171Z,0.70
2022-09-05T09:41:02.701Z,0.30
2022-09-05T09:41:58.123Z,0.50
2022-09-05T09:42:58.124Z,0.30
2022-09-05T09:43:58.143Z,0.70
2022-09-05T09:44:58.083Z,0.70
2022-09-05T09:45:58.086Z,0.70
2022-09-05T09:46:58.092Z,0.70
2022-09-05T09:47:58.046Z,0.50
2022-09-05T09:48:58.115Z,0.50
2022-09-05T09:49:58.037Z,0.60
2022-09-05T09:50:58.448Z,0.70
2022-09-05T09:51:57.995Z,0.40
2022-09-05T09:52:57.994Z,0.60
2022-09-05T09:53:58.020Z,0.50
2022-09-05T09:54:58.153Z,0.40
2022-09-05T09:55:57.966Z,0.70
2022-09-05T09:56:57.979Z,0.80
2022-09-05T09:57:57.938Z,0.50
2022-09-05T09:58:57.939Z,0.50
2022-09-05T09:59:57.935Z,0.40
2022-09-05T10:00:57.938Z,0.60
2022-09-05T10:02:15.620Z,1.00
2022-09-05T10:08:10.685Z,0.60
2022-09-05T10:11:22.795Z,0.70
2022-09-05T10:11:55.566Z,0.80
2022-09-05T10:12:01.856Z,0.50
2022-09-05T10:13:07.937Z,0.60
2022-09-05T10:13:58.841Z,0.50
2022-09-05T10:14:59.466Z,0.50
2022-09-05T10:15:58.858Z,0.50
2022-09-05T10:16:58.782Z,0.60
2022-09-05T10:17:58.778Z,0.40
2022-09-05T10:18:58.788Z,0.60
2022-09-05T10:20:14.266Z,0.50
2022-09-05T10:21:16.366Z,1.10
2022-09-05T10:22:58.766Z,0.50
2022-09-05T10:23:58.777Z,0.40
2022-09-05T10:24:58.973Z,0.40
2022-09-05T10:26:01.567Z,0.60
2022-09-05T10:26:58.764Z,0.40
2022-09-05T10:27:58.663Z,0.50
2022-09-05T10:29:36.938Z,0.40
2022-09-05T10:29:58.673Z,0.50
2022-09-05T10:32:31.263Z,0.50
2022-09-05T10:35:23.579Z,0.40
2022-09-05T10:35:29.291Z,0.40
2022-09-05T10:36:26.880Z,0.40
2022-09-05T10:37:26.569Z,0.30
2022-09-05T10:38:26.580Z,0.60
2022-09-05T10:39:26.628Z,0.80
2022-09-05T10:40:26.547Z,0.30
2022-09-05T10:41:26.494Z,0.40
2022-09-05T10:42:26.489Z,0.50
2022-09-05T10:43:26.633Z,0.50
2022-09-05T10:44:26.447Z,0.40
2022-09-05T10:45:33.362Z,0.70
2022-09-05T10:46:49.721Z,0.30
2022-09-05T10:47:26.554Z,0.30
2022-09-05T10:48:26.415Z,0.30
2022-09-05T10:49:30.070Z,0.30
2022-09-05T10:50:26.415Z,0.40
2022-09-05T10:51:27.919Z,0.60
2022-09-05T10:52:26.372Z,0.60
2022-09-05T10:53:26.605Z,0.70
2022-09-05T10:54:26.370Z,0.50
2022-09-05T10:55:26.375Z,0.30
2022-09-05T10:56:28.716Z,0.40
2022-09-05T10:57:26.375Z,0.30
2022-09-05T11:00:45.782Z,0.30
2022-09-05T11:02:38.370Z,0.40
2022-09-05T11:02:47.434Z,0.30
2022-09-05T11:03:40.266Z,0.20
2022-09-05T11:04:46.444Z,0.20
2022-09-05T11:05:40.127Z,0.30
2022-09-05T11:06:39.983Z,0.20
2022-09-05T11:07:39.987Z,0.20
2022-09-05T11:08:40.008Z,0.20
2022-09-05T11:09:39.970Z,0.40
2022-09-05T11:10:39.944Z,0.30
2022-09-05T11:11:39.932Z,0.40
2022-09-05T11:12:39.958Z,0.30
2022-09-05T11:13:39.988Z,0.30
2022-09-05T11:14:39.897Z,0.30
2022-09-05T11:15:45.873Z,0.40
2022-09-05T11:16:39.969Z,0.40
2022-09-05T11:17:39.893Z,0.30
2022-09-05T11:18:55.312Z,0.50
2022-09-05T11:19:40.372Z,0.40
2022-09-05T11:20:39.885Z,0.20
2022-09-05T11:21:39.841Z,0.20
2022-09-05T11:22:39.821Z,0.30
2022-09-05T11:23:39.852Z,0.20
2022-09-05T11:24:39.869Z,0.30
2022-09-05T11:25:41.238Z,0.50
2022-09-05T11:26:39.779Z,0.70
2022-09-05T11:27:39.777Z,0.50
2022-09-05T11:28:55.886Z,0.20
2022-09-05T11:29:39.773Z,0.30
2022-09-05T11:30:39.757Z,0.40
2022-09-05T11:32:04.264Z,0.50
2022-09-05T11:39:50.717Z,0.40
2022-09-05T11:40:29.124Z,0.20
2022-09-05T11:40:56.916Z,0.20
2022-09-05T11:41:16.456Z,0.40
2022-09-05T11:42:15.714Z,0.30
2022-09-05T11:43:15.641Z,0.20
2022-09-05T11:44:25.665Z,0.20
2022-09-05T11:45:15.640Z,0.40
2022-09-05T11:46:15.580Z,0.30
2022-09-05T11:47:28.713Z,0.30
2022-09-05T11:48:15.513Z,0.20
2022-09-05T11:49:15.535Z,0.20
2022-09-05T11:50:15.565Z,0.20
2022-09-05T11:51:15.507Z,0.20
2022-09-05T11:52:15.432Z,0.30
2022-09-05T11:53:15.510Z,0.50
2022-09-05T11:54:15.420Z,0.40
2022-09-05T11:55:21.212Z,0.20
2022-09-05T11:56:15.482Z,0.20
2022-09-05T11:57:31.955Z,0.30
2022-09-05T11:58:29.709Z,0.40
2022-09-05T11:59:15.390Z,0.30
2022-09-05T12:00:32.854Z,0.30
2022-09-05T12:01:41.357Z,0.30
2022-09-05T12:02:16.580Z,0.50
2022-09-05T12:03:57.372Z,0.20
2022-09-05T12:04:15.384Z,0.50
2022-09-05T12:05:58.739Z,0.40
2022-09-05T12:06:15.581Z,0.40
2022-09-05T12:07:29.962Z,0.50
2022-09-05T12:08:15.290Z,0.40
2022-09-05T12:09:20.213Z,0.30
2022-09-05T12:41:41.045Z,0.30
2022-09-05T12:42:09.561Z,0.70
2022-09-05T12:42:23.596Z,0.20
2022-09-05T12:44:19.284Z,0.40
2022-09-05T12:44:46.578Z,0.40
2022-09-05T12:45:03.192Z,0.50
2022-09-05T12:46:05.162Z,0.30
2022-09-05T12:47:18.624Z,0.40
2022-09-05T12:48:02.987Z,0.30
2022-09-05T12:49:07.380Z,0.60
2022-09-05T12:50:14.646Z,0.40
2022-09-05T12:51:02.890Z,0.20
2022-09-05T12:52:02.879Z,0.20
2022-09-05T12:53:02.869Z,0.40
2022-09-05T12:54:02.964Z,0.30
2022-09-05T12:55:02.895Z,0.20
2022-09-05T12:56:44.312Z,0.30
2022-09-05T13:03:11.563Z,0.40
2022-09-05T13:03:35.534Z,0.50
2022-09-05T13:03:59.439Z,0.60
2022-09-05T13:04:32.527Z,0.30
2022-09-05T13:05:30.899Z,0.50
2022-09-05T13:06:30.923Z,0.30
2022-09-05T13:07:30.768Z,0.30
2022-09-05T13:08:30.764Z,0.20
2022-09-05T13:10:04.725Z,0.30
2022-09-05T13:14:47.398Z,0.40
2022-09-05T13:15:22.007Z,0.50
2022-09-05T13:15:28.657Z,0.30
2022-09-05T13:16:23.020Z,0.30
2022-09-05T13:17:20.798Z,0.30
2022-09-05T13:18:20.622Z,0.50
2022-09-05T13:19:20.529Z,0.20
2022-09-05T13:20:20.539Z,0.20
2022-09-05T13:21:23.258Z,0.40
2022-09-05T13:22:20.458Z,0.40
2022-09-05T13:23:20.458Z,0.30
2022-09-05T13:24:20.437Z,0.30
2022-09-05T13:25:20.401Z,0.40
2022-09-05T13:26:20.408Z,0.30
2022-09-05T13:27:20.383Z,0.20
2022-09-05T13:28:20.364Z,0.20
2022-09-05T13:29:20.349Z,0.40
2022-09-05T13:32:23.826Z,0.40
2022-09-05T13:38:49.765Z,0.20
2022-09-05T13:39:23.020Z,0.20
2022-09-05T13:40:23.090Z,0.30
2022-09-05T13:41:27.238Z,0.40
2022-09-05T13:42:22.864Z,0.40
2022-09-05T13:43:22.841Z,0.50
2022-09-05T13:44:26.689Z,0.20
2022-09-05T13:45:22.820Z,0.20
2022-09-05T13:46:23.048Z,0.20
2022-09-05T13:47:29.741Z,0.50
2022-09-05T13:48:22.896Z,0.20
2022-09-05T13:49:25.054Z,0.20
2022-09-05T13:50:22.772Z,0.20
2022-09-05T13:51:22.785Z,0.30
2022-09-05T13:52:22.782Z,0.30
2022-09-05T13:53:22.805Z,0.30
2022-09-05T13:54:22.764Z,0.20
2022-09-05T13:55:22.726Z,0.30
2022-09-05T13:56:22.733Z,0.40
2022-09-05T13:57:31.785Z,0.20
2022-09-05T13:58:22.718Z,0.30
2022-09-05T13:59:22.706Z,0.50
2022-09-05T14:00:26.904Z,0.20
2022-09-05T14:01:22.730Z,0.60
2022-09-05T14:02:29.187Z,0.50
2022-09-05T14:03:39.377Z,0.40
2022-09-05T14:05:22.778Z,0.30
2022-09-05T14:06:45.005Z,0.30
2022-09-05T14:08:22.637Z,0.30
2022-09-05T14:09:39.198Z,0.40
2022-09-05T14:10:22.635Z,0.30
2022-09-05T14:11:22.586Z,0.30
2022-09-05T14:12:22.708Z,0.40
2022-09-05T14:13:22.582Z,0.40
2022-09-05T14:15:25.026Z,0.60
2022-09-05T14:16:22.586Z,0.30
2022-09-05T14:18:22.646Z,0.30
2022-09-05T14:19:22.566Z,0.30
2022-09-05T14:20:22.539Z,0.60
2022-09-05T14:21:22.519Z,0.50
2022-09-05T14:22:22.706Z,0.40
2022-09-05T14:23:22.590Z,0.50
2022-09-05T14:24:27.567Z,0.30
2022-09-05T14:25:22.656Z,0.30
2022-09-05T14:26:22.506Z,0.30
2022-09-05T14:27:30.370Z,0.40
2022-09-05T14:28:22.507Z,0.40
2022-09-05T14:29:22.507Z,0.40
2022-09-05T14:31:31.842Z,0.50
2022-09-05T14:37:42.575Z,0.40
2022-09-05T14:38:09.188Z,0.30
2022-09-05T14:38:18.529Z,0.30
2022-09-05T14:39:14.417Z,0.30
2022-09-05T14:40:29.209Z,0.40
2022-09-05T14:41:12.430Z,0.50
2022-09-05T14:42:12.378Z,0.40
2022-09-05T14:43:12.406Z,0.30
2022-09-05T14:44:12.392Z,0.40
2022-09-05T14:45:12.587Z,0.40
2022-09-05T14:46:12.406Z,0.50
2022-09-05T14:47:34.711Z,0.50
2022-09-05T14:48:13.318Z,0.60
2022-09-05T14:49:12.360Z,0.40
2022-09-05T14:50:17.547Z,0.50
2022-09-05T14:51:14.779Z,0.20
2022-09-05T14:52:12.987Z,0.30
2022-09-05T14:54:12.361Z,0.40
2022-09-05T14:55:20.166Z,0.40
2022-09-05T15:00:33.173Z,0.70
2022-09-05T15:03:05.988Z,0.50
2022-09-05T15:03:11.996Z,0.60
2022-09-05T15:05:12.163Z,0.40
2022-09-05T15:06:11.151Z,0.40
2022-09-05T15:07:11.190Z,0.50
2022-09-05T15:09:27.282Z,0.30
2022-09-05T15:12:39.605Z,0.70
2022-09-05T15:12:52.833Z,0.20
2022-09-05T15:13:33.706Z,0.40
2022-09-05T15:14:33.681Z,0.30
2022-09-05T15:15:33.671Z,0.10
2022-09-05T15:16:33.741Z,0.30
2022-09-05T15:17:33.725Z,0.20
2022-09-05T15:18:33.716Z,0.40
2022-09-05T15:19:33.604Z,0.30
2022-09-05T15:20:33.580Z,0.20
2022-09-05T15:21:35.849Z,0.30
2022-09-05T15:22:33.608Z,0.20
2022-09-05T15:23:33.644Z,0.20
2022-09-05T15:24:34.050Z,0.50
2022-09-05T15:25:33.596Z,0.50
2022-09-05T15:26:33.557Z,0.30
2022-09-05T15:27:33.597Z,0.40